Austerlitz, New York
Current Conditions -  °F | °C
As of 1:54 PM on Tuesday 27 Jan 2015 (Local Time) from KPSF Reporting Station
Broken Clouds Broken Clouds  
Wind Chill: -20°   Ceiling: 4800
Heat Index: -12°   Visibility: 7mi
Dew Point: -16°   Wind: 13mph
Humidity: 70%   Direction: 340°NNW
Pressure: 29.62"   Gusts: 22mph
Location:  42.31°N, 73.47°W
Report Text: KPSF 271854Z AUTO 34011G19KT 7SM FEW024 BKN048 M12/M16 A2962 RMK AO2 SNE50 SLP057 P0000 T11171161
Loading
Personal Weather Stations






























Interactive Weather Map New forecast layout! Learn more

10-Day Weather Forecast

Advertisements
Track Severe Weather on mobile